createdAt,value
2018-05-18T00:01:07.542Z,11.47
2018-05-18T00:03:35.888Z,11.40
2018-05-18T00:06:04.989Z,11.77
2018-05-18T00:08:33.725Z,11.97
2018-05-18T00:11:02.046Z,11.13
2018-05-18T00:13:30.357Z,12.50
2018-05-18T00:15:58.701Z,11.60
2018-05-18T00:18:27.037Z,11.03
2018-05-18T00:20:55.343Z,10.10
2018-05-18T00:23:24.176Z,12.43
2018-05-18T00:25:52.474Z,11.30
2018-05-18T00:28:21.590Z,12.73
2018-05-18T00:30:50.097Z,12.97
2018-05-18T00:33:18.438Z,11.83
2018-05-18T00:35:46.785Z,10.83
2018-05-18T00:38:15.164Z,11.43
2018-05-18T00:40:43.512Z,11.73
2018-05-18T00:43:11.879Z,11.60
2018-05-18T00:45:40.532Z,13.27
2018-05-18T00:48:08.917Z,12.70
2018-05-18T00:50:38.008Z,12.30
2018-05-18T00:53:07.144Z,12.93
2018-05-18T00:55:41.398Z,12.97
2018-05-18T00:58:09.766Z,13.37
2018-05-18T01:00:38.127Z,13.03
2018-05-18T01:03:07.217Z,13.37
2018-05-18T01:05:35.955Z,13.27
2018-05-18T01:08:05.055Z,13.63
2018-05-18T01:10:34.165Z,13.03
2018-05-18T01:13:02.531Z,15.83
2018-05-18T01:15:31.644Z,15.03
2018-05-18T01:17:59.970Z,15.20
2018-05-18T01:20:28.324Z,14.37
2018-05-18T01:22:56.665Z,13.30
2018-05-18T01:25:25.771Z,15.00
2018-05-18T01:27:54.411Z,14.00
2018-05-18T01:30:22.734Z,14.43
2018-05-18T01:32:51.822Z,14.87
2018-05-18T01:35:20.950Z,14.60
2018-05-18T01:37:49.295Z,14.10
2018-05-18T01:40:17.635Z,15.13
2018-05-18T01:42:46.020Z,14.83
2018-05-18T01:45:14.357Z,14.37
2018-05-18T01:47:42.698Z,14.07
2018-05-18T01:50:11.258Z,14.63
2018-05-18T01:52:39.592Z,13.57
2018-05-18T01:55:07.928Z,14.97
2018-05-18T01:57:36.284Z,14.90
2018-05-18T02:00:04.618Z,14.37
2018-05-18T02:02:32.965Z,14.77
2018-05-18T02:05:01.320Z,14.77
2018-05-18T02:07:29.712Z,15.70
2018-05-18T02:09:58.055Z,14.93
2018-05-18T02:12:26.872Z,14.70
2018-05-18T02:14:55.211Z,14.00
2018-05-18T02:17:23.586Z,14.57
2018-05-18T02:19:51.935Z,12.47
2018-05-18T02:22:20.291Z,13.90
2018-05-18T02:24:48.621Z,14.90
2018-05-18T02:27:17.740Z,15.83
2018-05-18T02:29:46.109Z,15.13
2018-05-18T02:32:14.478Z,18.03
2018-05-18T02:34:42.981Z,16.73
2018-05-18T02:37:11.360Z,15.30
2018-05-18T02:39:39.673Z,16.10
2018-05-18T02:42:08.045Z,15.60
2018-05-18T02:44:36.363Z,14.40
2018-05-18T02:47:05.471Z,14.80
2018-05-18T02:49:33.828Z,17.30
2018-05-18T02:52:02.237Z,16.33
2018-05-18T02:54:30.631Z,15.47
2018-05-18T02:56:59.203Z,14.30
2018-05-18T02:59:27.520Z,14.97
2018-05-18T03:01:55.858Z,16.20
2018-05-18T03:04:24.235Z,14.27
2018-05-18T03:06:52.562Z,15.57
2018-05-18T03:09:20.908Z,14.40
2018-05-18T03:11:49.299Z,17.30
2018-05-18T03:14:17.985Z,16.17
2018-05-18T03:16:46.296Z,16.73
2018-05-18T03:19:14.988Z,16.80
2018-05-18T03:21:43.351Z,15.23
2018-05-18T03:24:11.678Z,15.20
2018-05-18T03:26:40.826Z,15.03
2018-05-18T03:29:09.180Z,16.90
2018-05-18T03:31:37.520Z,15.97
2018-05-18T03:34:06.664Z,16.60
2018-05-18T03:36:35.020Z,16.80
2018-05-18T03:39:03.367Z,14.87
2018-05-18T03:41:32.768Z,16.77
2018-05-18T03:44:01.094Z,17.13
2018-05-18T03:46:29.431Z,16.80
2018-05-18T03:48:57.808Z,16.77
2018-05-18T03:51:26.224Z,17.80
2018-05-18T03:53:54.575Z,17.20
2018-05-18T03:56:23.744Z,17.60
2018-05-18T03:58:52.134Z,16.80
2018-05-18T04:01:38.337Z,17.43
2018-05-18T04:04:24.427Z,17.10
2018-05-18T04:07:10.428Z,17.10
2018-05-18T04:09:38.816Z,18.40
2018-05-18T04:12:07.264Z,16.70
2018-05-18T04:14:35.865Z,17.30
2018-05-18T04:17:04.201Z,16.20
2018-05-18T04:19:32.526Z,18.17
2018-05-18T04:22:01.422Z,16.43
2018-05-18T04:24:29.793Z,17.47
2018-05-18T04:26:58.162Z,16.20
2018-05-18T04:29:26.553Z,17.40
2018-05-18T04:31:55.038Z,17.23
2018-05-18T04:34:23.413Z,17.10
2018-05-18T04:36:51.869Z,17.93
2018-05-18T04:39:20.215Z,15.50
2018-05-18T04:41:48.634Z,17.27
2018-05-18T04:44:17.203Z,17.17
2018-05-18T04:46:45.597Z,15.13
2018-05-18T04:49:14.046Z,15.20
2018-05-18T04:51:42.427Z,14.77
2018-05-18T04:54:10.809Z,13.77
2018-05-18T04:56:39.210Z,16.07
2018-05-18T04:59:07.603Z,14.70
2018-05-18T05:01:36.313Z,14.03
2018-05-18T05:04:04.786Z,14.43
2018-05-18T05:06:33.710Z,14.67
2018-05-18T05:09:02.888Z,12.97
2018-05-18T05:11:31.288Z,12.70
2018-05-18T05:14:00.465Z,12.50
2018-05-18T05:16:28.824Z,11.93
2018-05-18T05:18:57.194Z,12.57
2018-05-18T05:21:25.656Z,11.70
2018-05-18T05:23:54.169Z,11.60
2018-05-18T05:26:24.074Z,13.57
2018-05-18T05:28:52.739Z,10.87
2018-05-18T05:31:21.081Z,10.60
2018-05-18T05:33:49.405Z,12.53
2018-05-18T05:36:17.744Z,12.57
2018-05-18T05:38:46.835Z,11.73
2018-05-18T05:41:15.930Z,11.70
2018-05-18T05:43:45.075Z,10.33
2018-05-18T05:46:13.377Z,10.30
2018-05-18T05:48:41.717Z,10.83
2018-05-18T05:51:10.189Z,11.00
2018-05-18T05:53:38.536Z,10.97
2018-05-18T05:56:06.858Z,11.67
2018-05-18T05:58:35.285Z,10.93
2018-05-18T06:01:04.368Z,11.70
2018-05-18T06:03:33.460Z,10.07
2018-05-18T06:06:01.805Z,12.30
2018-05-18T06:08:30.139Z,11.20
2018-05-18T06:10:58.486Z,10.77
2018-05-18T06:13:26.954Z,10.07
2018-05-18T06:15:55.291Z,10.57
2018-05-18T06:18:24.387Z,9.87
2018-05-18T06:20:53.516Z,11.67
2018-05-18T06:23:21.848Z,9.33
2018-05-18T06:25:50.179Z,10.43
2018-05-18T06:28:18.561Z,11.27
2018-05-18T06:30:46.892Z,11.37
2018-05-18T06:33:15.259Z,11.30
2018-05-18T06:35:43.861Z,9.73
2018-05-18T06:38:12.176Z,9.40
2018-05-18T06:40:40.497Z,10.13
2018-05-18T06:43:08.873Z,9.40
2018-05-18T06:45:37.213Z,10.07
2018-05-18T06:48:05.544Z,10.27
2018-05-18T06:50:33.893Z,9.13
2018-05-18T06:53:02.207Z,10.33
2018-05-18T06:55:30.543Z,10.20
2018-05-18T06:57:58.931Z,9.40
2018-05-18T07:00:27.264Z,10.07
2018-05-18T07:02:55.639Z,10.10
2018-05-18T07:05:24.740Z,10.30
2018-05-18T07:07:53.826Z,9.70
2018-05-18T07:10:22.931Z,9.00
2018-05-18T07:12:51.264Z,9.80
2018-05-18T07:15:19.593Z,10.30
2018-05-18T07:17:47.923Z,10.60
2018-05-18T07:20:16.348Z,9.03
2018-05-18T07:22:44.678Z,8.97
2018-05-18T07:25:13.007Z,9.13
2018-05-18T07:27:41.362Z,10.07
2018-05-18T07:30:10.486Z,9.13
2018-05-18T07:32:38.822Z,9.43
2018-05-18T07:35:07.185Z,9.07
2018-05-18T07:37:35.479Z,10.10
2018-05-18T07:40:03.815Z,8.43
2018-05-18T07:42:32.335Z,8.07
2018-05-18T07:45:00.666Z,9.43
2018-05-18T07:47:28.984Z,9.57
2018-05-18T07:49:57.339Z,9.73
2018-05-18T07:52:25.675Z,8.63
2018-05-18T07:54:54.742Z,8.13
2018-05-18T07:57:23.109Z,9.17
2018-05-18T07:59:51.478Z,8.70
2018-05-18T08:02:19.821Z,8.40
2018-05-18T08:04:49.414Z,8.30
2018-05-18T08:07:18.481Z,8.10
2018-05-18T08:09:46.801Z,9.23
2018-05-18T08:12:15.936Z,9.83
2018-05-18T08:14:44.267Z,8.67
2018-05-18T08:17:13.426Z,8.93
2018-05-18T08:19:41.769Z,7.90
2018-05-18T08:22:10.123Z,8.87
2018-05-18T08:24:39.265Z,8.80
2018-05-18T08:27:23.380Z,9.90
2018-05-18T08:29:51.728Z,9.00
2018-05-18T08:32:20.070Z,8.90
2018-05-18T08:34:48.443Z,9.40
2018-05-18T08:37:16.770Z,8.17
2018-05-18T08:39:45.148Z,9.03
2018-05-18T08:42:14.321Z,8.83
2018-05-18T08:44:42.628Z,10.70
2018-05-18T08:47:10.982Z,8.57
2018-05-18T08:49:39.612Z,9.50
2018-05-18T08:52:08.689Z,8.70
2018-05-18T08:54:37.057Z,9.83
2018-05-18T08:57:05.423Z,9.00
2018-05-18T08:59:34.536Z,8.67
2018-05-18T09:02:02.862Z,8.57
2018-05-18T09:04:31.224Z,8.10
2018-05-18T09:06:59.539Z,8.37
2018-05-18T09:09:27.843Z,8.17
2018-05-18T09:11:56.460Z,9.30
2018-05-18T09:14:24.794Z,7.67
2018-05-18T09:16:53.622Z,8.00
2018-05-18T09:19:22.743Z,8.40
2018-05-18T09:21:51.063Z,9.13
2018-05-18T09:24:19.402Z,9.53
2018-05-18T09:26:47.755Z,8.03
2018-05-18T09:29:16.099Z,8.80
2018-05-18T09:31:44.492Z,8.40
2018-05-18T09:34:13.055Z,9.23
2018-05-18T09:36:41.454Z,8.80
2018-05-18T09:39:09.776Z,7.27
2018-05-18T09:41:38.129Z,8.23
2018-05-18T09:44:07.222Z,9.10
2018-05-18T09:46:35.548Z,9.30
2018-05-18T09:49:03.903Z,7.73
2018-05-18T09:51:32.217Z,8.23
2018-05-18T09:54:00.564Z,7.57
2018-05-18T09:56:29.739Z,8.43
2018-05-18T09:58:58.048Z,9.03
2018-05-18T10:01:26.380Z,9.13
2018-05-18T10:03:54.746Z,8.20
2018-05-18T10:06:23.137Z,8.73
2018-05-18T10:08:51.484Z,11.87
2018-05-18T10:11:19.839Z,11.70
2018-05-18T10:13:48.200Z,11.00
2018-05-18T10:16:17.264Z,11.17
2018-05-18T10:18:45.955Z,10.77
2018-05-18T10:21:14.328Z,11.60
2018-05-18T10:23:42.751Z,10.23
2018-05-18T10:26:11.125Z,12.53
2018-05-18T10:28:39.448Z,11.67
2018-05-18T10:31:07.785Z,12.10
2018-05-18T10:33:36.906Z,12.10
2018-05-18T10:36:05.226Z,11.90
2018-05-18T10:38:33.540Z,12.10
2018-05-18T10:41:02.316Z,13.00
2018-05-18T10:43:30.583Z,11.80
2018-05-18T10:45:59.715Z,12.43
2018-05-18T10:48:28.126Z,12.40
2018-05-18T10:50:56.455Z,12.93
2018-05-18T10:53:25.538Z,12.47
2018-05-18T10:55:53.951Z,11.90
2018-05-18T10:58:22.252Z,13.73
2018-05-18T11:00:50.632Z,11.60
2018-05-18T11:03:20.219Z,11.67
2018-05-18T11:05:48.563Z,12.20
2018-05-18T11:08:16.907Z,13.33
2018-05-18T11:10:45.247Z,12.67
2018-05-18T11:13:14.342Z,11.30
2018-05-18T11:15:42.720Z,12.20
2018-05-18T11:18:11.089Z,13.27
2018-05-18T11:20:39.419Z,12.40
2018-05-18T11:23:07.750Z,11.67
2018-05-18T11:25:36.333Z,12.60
2018-05-18T11:28:05.455Z,13.60
2018-05-18T11:30:33.829Z,12.03
2018-05-18T11:33:02.243Z,12.13
2018-05-18T11:35:31.269Z,14.00
2018-05-18T11:38:00.368Z,13.53
2018-05-18T11:40:28.743Z,14.07
2018-05-18T11:42:57.129Z,11.17
2018-05-18T11:45:26.224Z,13.27
2018-05-18T11:47:54.916Z,12.53
2018-05-18T11:50:23.251Z,12.73
2018-05-18T11:52:51.624Z,12.60
2018-05-18T11:55:19.969Z,11.47
2018-05-18T11:57:48.337Z,13.17
2018-05-18T12:00:17.455Z,13.00
2018-05-18T12:02:45.899Z,12.80
2018-05-18T12:05:14.186Z,12.13
2018-05-18T12:07:43.330Z,11.43
2018-05-18T12:10:11.985Z,13.37
2018-05-18T12:12:40.331Z,11.70
2018-05-18T12:15:08.676Z,11.07
2018-05-18T12:17:37.047Z,12.30
2018-05-18T12:20:05.425Z,13.17
2018-05-18T12:22:33.762Z,11.47
2018-05-18T12:25:02.972Z,12.43
2018-05-18T12:27:31.337Z,11.60
2018-05-18T12:30:00.446Z,12.20
2018-05-18T12:32:29.706Z,12.30
2018-05-18T12:34:58.066Z,12.60
2018-05-18T12:37:26.410Z,11.93
2018-05-18T12:39:54.786Z,11.83
2018-05-18T12:42:23.132Z,12.63
2018-05-18T12:44:51.466Z,12.80
2018-05-18T12:47:19.817Z,14.30
2018-05-18T12:49:48.925Z,12.17
2018-05-18T12:52:17.266Z,11.20
2018-05-18T12:54:45.714Z,9.90
2018-05-18T12:57:14.034Z,10.40
2018-05-18T12:59:42.381Z,12.23
2018-05-18T13:02:10.730Z,13.03
2018-05-18T13:04:39.121Z,11.90
2018-05-18T13:07:07.485Z,11.87
2018-05-18T13:09:35.894Z,11.23
2018-05-18T13:12:04.237Z,12.50
2018-05-18T13:14:32.591Z,10.33
2018-05-18T13:17:01.152Z,10.30
2018-05-18T13:19:29.476Z,10.10
2018-05-18T13:21:58.570Z,11.00
2018-05-18T13:24:27.672Z,11.53
2018-05-18T13:26:56.005Z,11.30
2018-05-18T13:29:24.348Z,12.10
2018-05-18T13:31:52.721Z,10.10
2018-05-18T13:34:21.083Z,11.53
2018-05-18T13:36:50.184Z,10.60
2018-05-18T13:39:18.645Z,11.67
2018-05-18T13:41:47.760Z,10.57
2018-05-18T13:44:16.093Z,13.00
2018-05-18T13:46:44.434Z,9.83
2018-05-18T13:49:12.768Z,12.10
2018-05-18T13:51:41.205Z,12.50
2018-05-18T13:54:10.331Z,12.27
2018-05-18T13:56:38.648Z,11.70
2018-05-18T13:59:07.718Z,11.83
2018-05-18T14:01:36.155Z,11.30
2018-05-18T14:04:04.504Z,11.93
2018-05-18T14:06:32.866Z,10.30
2018-05-18T14:09:01.992Z,10.57
2018-05-18T14:11:30.333Z,12.27
2018-05-18T14:13:58.691Z,11.30
2018-05-18T14:16:27.056Z,10.00
2018-05-18T14:18:55.380Z,10.80
2018-05-18T14:21:23.985Z,10.63
2018-05-18T14:23:52.770Z,11.67
2018-05-18T14:26:21.224Z,10.33
2018-05-18T14:28:50.251Z,10.83
2018-05-18T14:31:18.618Z,10.70
2018-05-18T14:33:47.030Z,12.33
2018-05-18T14:36:15.404Z,11.07
2018-05-18T14:38:43.911Z,10.87
2018-05-18T14:41:12.265Z,11.50
2018-05-18T14:43:40.621Z,11.03
2018-05-18T14:46:10.193Z,10.70
2018-05-18T14:48:38.559Z,11.57
2018-05-18T14:51:07.012Z,11.37
2018-05-18T14:53:35.297Z,11.50
2018-05-18T14:56:03.616Z,11.40
2018-05-18T14:58:31.978Z,12.00
2018-05-18T15:01:00.361Z,11.47
2018-05-18T15:03:28.686Z,12.60
2018-05-18T15:05:57.780Z,9.53
2018-05-18T15:08:27.468Z,10.10
2018-05-18T15:10:55.807Z,10.00
2018-05-18T15:13:24.122Z,11.10
2018-05-18T15:15:53.272Z,10.60
2018-05-18T15:18:21.587Z,11.33
2018-05-18T15:20:49.921Z,10.60
2018-05-18T15:23:18.553Z,10.67
2018-05-18T15:25:46.895Z,11.60
2018-05-18T15:28:15.284Z,11.13
2018-05-18T15:30:43.918Z,12.10
2018-05-18T15:33:13.036Z,12.20
2018-05-18T15:35:41.497Z,10.50
2018-05-18T15:38:10.658Z,11.57
2018-05-18T15:40:39.015Z,10.07
2018-05-18T15:43:07.373Z,10.47
2018-05-18T15:45:35.785Z,9.50
2018-05-18T15:48:04.188Z,10.63
2018-05-18T15:50:32.556Z,12.00
2018-05-18T15:53:01.374Z,11.30
2018-05-18T15:55:29.748Z,15.70
2018-05-18T15:57:58.077Z,9.90
2018-05-18T16:00:26.435Z,9.50
2018-05-18T16:02:54.802Z,10.50
2018-05-18T16:05:23.915Z,11.70
2018-05-18T16:07:52.425Z,11.00
2018-05-18T16:10:20.742Z,9.90
2018-05-18T16:12:49.175Z,10.97
2018-05-18T16:15:18.349Z,10.13
2018-05-18T16:17:46.717Z,11.27
2018-05-18T16:20:15.819Z,11.60
2018-05-18T16:22:44.967Z,11.23
2018-05-18T16:25:13.604Z,11.17
2018-05-18T16:27:42.719Z,10.50
2018-05-18T16:30:11.118Z,10.73
2018-05-18T16:32:39.447Z,10.03
2018-05-18T16:35:08.533Z,10.40
2018-05-18T16:37:37.160Z,9.93
2018-05-18T16:40:05.548Z,10.10
2018-05-18T16:42:33.881Z,10.70
2018-05-18T16:45:02.253Z,11.80
2018-05-18T16:47:30.590Z,11.47
2018-05-18T16:49:58.948Z,9.90
2018-05-18T16:52:27.329Z,10.60
2018-05-18T16:54:55.657Z,10.53
2018-05-18T16:57:23.971Z,10.70
2018-05-18T16:59:52.444Z,10.40
2018-05-18T17:02:21.575Z,9.73
2018-05-18T17:04:49.919Z,10.37
2018-05-18T17:07:19.095Z,11.17
2018-05-18T17:09:47.433Z,9.23
2018-05-18T17:12:15.818Z,9.47
2018-05-18T17:14:44.209Z,10.33
2018-05-18T17:17:12.515Z,11.37
2018-05-18T17:19:40.878Z,10.47
2018-05-18T17:22:09.628Z,10.93
2018-05-18T17:24:37.955Z,12.20
2018-05-18T17:27:06.358Z,12.10
2018-05-18T17:29:35.593Z,10.53
2018-05-18T17:32:03.962Z,12.23
2018-05-18T17:34:32.295Z,12.03
2018-05-18T17:37:00.658Z,12.03
2018-05-18T17:39:28.982Z,12.10
2018-05-18T17:41:58.077Z,11.43
2018-05-18T17:44:27.356Z,12.23
2018-05-18T17:46:55.712Z,11.43
2018-05-18T17:49:24.078Z,13.10
2018-05-18T17:51:54.392Z,11.23
2018-05-18T17:54:22.789Z,11.63
2018-05-18T17:56:51.672Z,11.30
2018-05-18T17:59:20.138Z,11.40
2018-05-18T18:01:48.670Z,11.30
2018-05-18T18:04:17.091Z,11.23
2018-05-18T18:06:45.544Z,13.10
2018-05-18T18:09:13.879Z,12.33
2018-05-18T18:11:42.262Z,10.87
2018-05-18T18:14:10.663Z,10.77
2018-05-18T18:16:39.750Z,12.70
2018-05-18T18:19:08.081Z,12.97
2018-05-18T18:21:37.190Z,12.03
2018-05-18T18:24:05.561Z,18.00
2018-05-18T18:26:34.236Z,14.10
2018-05-18T18:29:02.831Z,11.57
2018-05-18T18:31:31.203Z,10.43
2018-05-18T18:33:59.508Z,11.50
2018-05-18T18:36:27.907Z,10.50
2018-05-18T18:38:56.221Z,11.00
2018-05-18T18:41:24.531Z,12.63
2018-05-18T18:43:52.888Z,11.27
2018-05-18T18:46:22.107Z,12.03
2018-05-18T18:48:50.478Z,13.30
2018-05-18T18:51:19.690Z,11.60
2018-05-18T18:53:48.031Z,11.63
2018-05-18T18:56:16.383Z,13.67
2018-05-18T18:58:44.826Z,11.90
2018-05-18T19:01:13.842Z,11.83
2018-05-18T19:03:43.221Z,10.50
2018-05-18T19:06:11.614Z,10.67
2018-05-18T19:08:39.982Z,10.77
2018-05-18T19:11:08.324Z,10.37
2018-05-18T19:13:36.756Z,11.30
2018-05-18T19:16:05.084Z,11.10
2018-05-18T19:18:33.446Z,10.93
2018-05-18T19:21:01.823Z,10.83
2018-05-18T19:23:30.184Z,10.50
2018-05-18T19:25:58.867Z,10.90
2018-05-18T19:28:27.613Z,12.63
2018-05-18T19:30:56.716Z,11.23
2018-05-18T19:33:26.228Z,11.23
2018-05-18T19:35:54.699Z,12.43
2018-05-18T19:38:23.796Z,10.93
2018-05-18T19:40:52.898Z,10.50
2018-05-18T19:43:22.017Z,10.33
2018-05-18T19:45:50.342Z,11.43
2018-05-18T19:48:18.717Z,11.70
2018-05-18T19:50:47.870Z,13.30
2018-05-18T19:53:16.214Z,11.97
2018-05-18T19:55:45.309Z,14.10
2018-05-18T19:58:13.751Z,11.37
2018-05-18T20:00:42.095Z,11.90
2018-05-18T20:03:10.490Z,11.20
2018-05-18T20:05:38.783Z,11.70
2018-05-18T20:08:07.176Z,12.07
2018-05-18T20:10:35.581Z,11.80
2018-05-18T20:13:03.916Z,12.17
2018-05-18T20:15:32.307Z,10.33
2018-05-18T20:18:00.639Z,10.57
2018-05-18T20:20:29.668Z,12.67
2018-05-18T20:22:58.032Z,11.83
2018-05-18T20:25:26.390Z,10.90
2018-05-18T20:27:55.600Z,11.17
2018-05-18T20:30:24.381Z,12.33
2018-05-18T20:32:53.570Z,11.63
2018-05-18T20:35:21.996Z,11.93
2018-05-18T20:37:50.326Z,10.03
2018-05-18T20:40:19.560Z,11.57
2018-05-18T20:42:48.210Z,12.70
2018-05-18T20:45:17.413Z,11.00
2018-05-18T20:47:46.540Z,12.57
2018-05-18T20:50:14.917Z,12.20
2018-05-18T20:52:43.325Z,11.80
2018-05-18T20:55:11.693Z,13.70
2018-05-18T20:57:40.088Z,15.40
2018-05-18T21:00:08.470Z,12.80
2018-05-18T21:02:36.916Z,13.10
2018-05-18T21:05:05.698Z,12.57
2018-05-18T21:07:34.050Z,12.40
2018-05-18T21:10:03.167Z,13.23
2018-05-18T21:12:31.601Z,12.07
2018-05-18T21:14:59.966Z,11.93
2018-05-18T21:17:28.292Z,12.43
2018-05-18T21:19:57.421Z,13.07
2018-05-18T21:22:25.762Z,12.90
2018-05-18T21:24:54.973Z,14.20
2018-05-18T21:27:23.428Z,14.47
2018-05-18T21:29:51.758Z,12.60
2018-05-18T21:32:20.209Z,13.60
2018-05-18T21:34:48.586Z,14.80
2018-05-18T21:37:17.687Z,14.33
2018-05-18T21:39:46.784Z,14.37
2018-05-18T21:42:15.910Z,14.60
2018-05-18T21:44:44.306Z,14.77
2018-05-18T21:47:12.664Z,14.57
2018-05-18T21:49:41.102Z,15.23
2018-05-18T21:52:09.490Z,15.30
2018-05-18T21:54:37.838Z,15.63
2018-05-18T21:57:06.200Z,15.83
2018-05-18T21:59:34.522Z,14.20
2018-05-18T22:02:02.859Z,14.43
2018-05-18T22:04:31.275Z,15.83
2018-05-18T22:06:59.646Z,15.57
2018-05-18T22:09:27.975Z,15.30
2018-05-18T22:11:56.542Z,14.40
2018-05-18T22:14:24.917Z,16.60
2018-05-18T22:16:54.004Z,13.53
2018-05-18T22:19:23.119Z,13.87
2018-05-18T22:21:52.203Z,14.30
2018-05-18T22:24:21.366Z,13.97
2018-05-18T22:26:49.742Z,14.73
2018-05-18T22:29:18.104Z,13.50
2018-05-18T22:31:46.733Z,12.80
2018-05-18T22:34:15.221Z,12.80
2018-05-18T22:36:44.334Z,13.03
2018-05-18T22:39:13.422Z,13.63
2018-05-18T22:41:42.556Z,11.40
2018-05-18T22:44:10.875Z,13.10
2018-05-18T22:46:39.259Z,13.13
2018-05-18T22:49:07.626Z,13.80
2018-05-18T22:51:35.986Z,11.93
2018-05-18T22:54:04.352Z,13.03
2018-05-18T22:56:32.966Z,12.73
2018-05-18T22:59:01.364Z,13.07
2018-05-18T23:01:29.699Z,11.93
2018-05-18T23:03:58.039Z,12.60
2018-05-18T23:06:26.356Z,12.50
2018-05-18T23:08:54.776Z,13.47
2018-05-18T23:11:23.208Z,12.97
2018-05-18T23:13:51.538Z,11.97
2018-05-18T23:16:20.663Z,13.40
2018-05-18T23:18:50.263Z,12.40
2018-05-18T23:21:18.670Z,12.73
2018-05-18T23:23:47.053Z,12.63
2018-05-18T23:26:15.464Z,13.03
2018-05-18T23:28:43.815Z,12.13
2018-05-18T23:31:12.137Z,12.63
2018-05-18T23:33:41.075Z,13.53
2018-05-18T23:36:09.412Z,13.97
2018-05-18T23:38:37.728Z,11.73
2018-05-18T23:41:06.258Z,12.00
2018-05-18T23:43:34.623Z,13.97
2018-05-18T23:46:03.828Z,12.20
2018-05-18T23:48:32.182Z,11.60
2018-05-18T23:51:00.516Z,10.67
2018-05-18T23:53:28.845Z,12.20
2018-05-18T23:55:57.191Z,11.73
2018-05-18T23:58:26.316Z,12.70
